Crown Hill, West Virginia
Current Conditions -  °F | °C
As of 4:54 AM on Saturday 20 Dec 2014 (Local Time) from KCRW Reporting Station
Scattered Clouds Scattered Clouds  
Wind Chill: 28°   Ceiling: Unl
Heat Index: 28°   Visibility: 10mi
Dew Point: 22°   Wind: 3mph
Humidity: 78%   Direction: 80°E
Pressure: 30.22"   Gusts: NA
Location:  38.2184°N, 81.4434°W
Report Text: KCRW 200954Z 08003KT 10SM SCT020 M02/M06 A3022 RMK AO2 SLP244 T10221056
Loading
Personal Weather Stations






























Interactive Weather Map New forecast layout! Learn more

10-Day Weather Forecast

Advertisements
Track Severe Weather on mobile